createdAt,value
2022-12-13T00:02:00.976Z,71.34
2022-12-13T00:04:30.146Z,71.36
2022-12-13T00:06:59.725Z,71.25
2022-12-13T00:09:28.564Z,71.16
2022-12-13T00:11:57.482Z,71.13
2022-12-13T00:14:26.426Z,71.24
2022-12-13T00:16:55.296Z,71.20
2022-12-13T00:19:25.498Z,71.36
2022-12-13T00:21:54.476Z,71.02
2022-12-13T00:24:23.300Z,71.18
2022-12-13T00:26:55.014Z,71.23
2022-12-13T00:29:23.826Z,71.12
2022-12-13T00:31:59.924Z,71.12
2022-12-13T00:34:29.785Z,71.10
2022-12-13T00:37:01.717Z,71.38
2022-12-13T00:39:30.628Z,71.06
2022-12-13T00:41:59.447Z,71.28
2022-12-13T00:44:28.484Z,71.34
2022-12-13T00:46:57.443Z,71.29
2022-12-13T00:49:27.645Z,71.26
2022-12-13T00:51:56.463Z,71.28
2022-12-13T00:54:25.395Z,71.24
2022-12-13T00:56:54.555Z,71.06
2022-12-13T00:59:23.377Z,71.16
2022-12-13T01:01:54.205Z,71.08
2022-12-13T01:04:23.213Z,71.14
2022-12-13T01:06:52.240Z,71.02
2022-12-13T01:09:24.768Z,71.18
2022-12-13T01:12:01.120Z,71.19
2022-12-13T01:14:30.571Z,70.69
2022-12-13T01:17:00.901Z,71.15
2022-12-13T01:19:30.486Z,71.07
2022-12-13T01:22:04.599Z,71.22
2022-12-13T01:24:34.036Z,71.27
2022-12-13T01:27:02.822Z,71.17
2022-12-13T01:29:31.617Z,71.03
2022-12-13T01:32:00.475Z,71.24
2022-12-13T01:34:29.455Z,71.21
2022-12-13T01:36:58.959Z,70.98
2022-12-13T01:39:28.654Z,71.19
2022-12-13T01:42:00.355Z,71.27
2022-12-13T01:44:56.707Z,70.85
2022-12-13T01:47:47.820Z,71.01
2022-12-13T01:50:27.291Z,71.13
2022-12-13T01:53:00.176Z,71.09
2022-12-13T01:55:33.228Z,71.13
2022-12-13T01:58:11.171Z,71.42
2022-12-13T02:00:41.625Z,71.60
2022-12-13T02:03:20.804Z,71.50
2022-12-13T02:06:42.686Z,71.51
2022-12-13T02:09:12.829Z,71.24
2022-12-13T02:11:44.263Z,71.82
2022-12-13T02:14:14.007Z,71.73
2022-12-13T02:16:53.589Z,71.59
2022-12-13T02:20:01.607Z,71.95
2022-12-13T02:22:56.131Z,72.64
2022-12-13T02:26:04.254Z,73.84
2022-12-13T02:29:01.979Z,74.39
2022-12-13T02:31:34.912Z,74.69
2022-12-13T02:34:34.000Z,74.73
2022-12-13T02:37:25.770Z,74.10
2022-12-13T02:39:59.691Z,73.59
2022-12-13T02:42:38.135Z,73.17
2022-12-13T02:45:09.847Z,73.63
2022-12-13T02:47:43.943Z,73.29
2022-12-13T02:50:15.582Z,72.75
2022-12-13T02:52:47.179Z,71.06
2022-12-13T02:55:17.624Z,70.75
2022-12-13T02:57:49.264Z,71.14
2022-12-13T03:00:23.487Z,71.59
2022-12-13T03:03:07.819Z,72.10
2022-12-13T03:06:12.996Z,72.07
2022-12-13T03:09:08.373Z,72.64
2022-12-13T03:12:09.388Z,72.56
2022-12-13T03:14:46.144Z,72.64
2022-12-13T03:17:17.875Z,72.50
2022-12-13T03:19:47.745Z,72.55
2022-12-13T03:22:17.799Z,72.60
2022-12-13T03:24:46.825Z,72.47
2022-12-13T03:27:15.628Z,72.62
2022-12-13T03:29:44.511Z,72.92
2022-12-13T03:32:13.302Z,73.00
2022-12-13T03:34:44.061Z,73.10
2022-12-13T03:37:14.338Z,72.86
2022-12-13T03:39:43.329Z,72.98
2022-12-13T03:42:12.371Z,72.86
2022-12-13T03:44:41.152Z,73.06
2022-12-13T03:47:10.115Z,72.71
2022-12-13T03:49:38.863Z,72.66
2022-12-13T03:52:07.826Z,72.88
2022-12-13T03:54:36.858Z,72.84
2022-12-13T03:57:05.706Z,72.94
2022-12-13T03:59:34.579Z,72.71
2022-12-13T04:02:04.219Z,72.53
2022-12-13T04:04:33.416Z,72.66
2022-12-13T04:07:02.477Z,72.87
2022-12-13T04:09:31.287Z,72.76
2022-12-13T04:12:18.226Z,72.62
2022-12-13T04:14:47.081Z,72.78
2022-12-13T04:17:16.051Z,72.71
2022-12-13T04:19:44.920Z,72.95
2022-12-13T04:22:13.677Z,72.92
2022-12-13T04:24:42.491Z,72.83
2022-12-13T04:27:11.365Z,73.18
2022-12-13T04:29:40.161Z,72.97
2022-12-13T04:32:27.217Z,72.79
2022-12-13T04:35:01.545Z,72.96
2022-12-13T04:37:32.594Z,72.92
2022-12-13T04:40:01.534Z,72.96
2022-12-13T04:42:32.246Z,73.22
2022-12-13T04:45:01.095Z,73.23
2022-12-13T04:47:31.938Z,73.21
2022-12-13T04:50:00.865Z,73.69
2022-12-13T04:52:31.335Z,73.58
2022-12-13T04:55:00.172Z,73.30
2022-12-13T04:57:29.033Z,73.37
2022-12-13T04:59:57.851Z,73.15
2022-12-13T05:02:28.947Z,73.14
2022-12-13T05:04:58.117Z,73.24
2022-12-13T05:07:27.921Z,73.19
2022-12-13T05:09:56.757Z,73.37
2022-12-13T05:12:25.846Z,73.38
2022-12-13T05:14:54.801Z,73.04
2022-12-13T05:17:23.944Z,73.24
2022-12-13T05:19:52.838Z,73.35
2022-12-13T05:22:21.678Z,73.27
2022-12-13T05:24:50.470Z,73.33
2022-12-13T05:27:25.933Z,73.36
2022-12-13T05:30:04.964Z,73.10
2022-12-13T05:32:43.107Z,73.56
2022-12-13T05:35:21.790Z,73.37
2022-12-13T05:37:54.595Z,73.34
2022-12-13T05:40:24.797Z,73.44
2022-12-13T05:43:00.645Z,73.46
2022-12-13T05:45:32.307Z,73.64
2022-12-13T05:48:02.782Z,73.50
2022-12-13T05:50:31.619Z,73.56
2022-12-13T05:53:00.576Z,73.26
2022-12-13T05:55:29.426Z,73.45
2022-12-13T05:58:02.504Z,73.47
2022-12-13T06:00:32.244Z,73.76
2022-12-13T06:03:01.938Z,73.73
2022-12-13T06:05:32.006Z,73.46
2022-12-13T06:08:01.301Z,73.54
2022-12-13T06:10:35.123Z,73.54
2022-12-13T06:13:21.988Z,73.81
2022-12-13T06:16:01.571Z,73.52
2022-12-13T06:18:36.576Z,73.68
2022-12-13T06:21:07.760Z,73.72
2022-12-13T06:23:36.658Z,73.69
2022-12-13T06:26:07.542Z,73.61
2022-12-13T06:28:36.695Z,73.66
2022-12-13T06:31:05.843Z,73.63
2022-12-13T06:33:39.570Z,73.57
2022-12-13T06:36:08.953Z,73.75
2022-12-13T06:38:43.560Z,73.51
2022-12-13T06:41:15.799Z,73.50
2022-12-13T06:43:46.083Z,73.74
2022-12-13T06:46:16.357Z,74.01
2022-12-13T06:48:45.707Z,73.71
2022-12-13T06:51:22.830Z,73.65
2022-12-13T06:53:53.155Z,73.68
2022-12-13T06:56:21.975Z,73.37
2022-12-13T06:58:50.725Z,73.46
2022-12-13T07:01:24.892Z,73.79
2022-12-13T07:03:58.461Z,73.61
2022-12-13T07:06:27.631Z,73.58
2022-12-13T07:08:58.803Z,73.50
2022-12-13T07:11:33.833Z,73.65
2022-12-13T07:14:02.807Z,73.74
2022-12-13T07:16:33.038Z,73.68
2022-12-13T07:19:04.887Z,73.55
2022-12-13T07:21:52.581Z,73.69
2022-12-13T07:24:21.436Z,73.64
2022-12-13T07:26:50.371Z,73.82
2022-12-13T07:29:22.084Z,73.72
2022-12-13T07:31:51.374Z,73.50
2022-12-13T07:34:20.328Z,73.50
2022-12-13T07:36:51.492Z,73.88
2022-12-13T07:39:20.415Z,73.77
2022-12-13T07:41:49.271Z,73.56
2022-12-13T07:44:18.500Z,73.65
2022-12-13T07:46:48.048Z,73.70
2022-12-13T07:49:17.002Z,73.53
2022-12-13T07:51:45.869Z,73.91
2022-12-13T07:54:14.755Z,73.50
2022-12-13T07:56:43.673Z,73.68
2022-12-13T07:59:12.634Z,73.62
2022-12-13T08:01:42.273Z,73.76
2022-12-13T08:04:11.319Z,73.45
2022-12-13T08:06:40.158Z,73.63
2022-12-13T08:09:09.070Z,73.57
2022-12-13T08:11:37.981Z,73.55
2022-12-13T08:14:07.049Z,73.62
2022-12-13T08:16:35.993Z,73.45
2022-12-13T08:19:04.978Z,73.54
2022-12-13T08:21:54.556Z,73.20
2022-12-13T08:24:25.810Z,73.26
2022-12-13T08:27:01.781Z,73.32
2022-12-13T08:29:34.588Z,73.30
2022-12-13T08:32:09.499Z,73.45
2022-12-13T08:34:38.818Z,73.34
2022-12-13T08:37:07.770Z,73.47
2022-12-13T08:39:38.421Z,73.29
2022-12-13T08:42:19.338Z,73.18
2022-12-13T08:44:51.123Z,73.43
2022-12-13T08:47:25.944Z,73.32
2022-12-13T08:50:02.070Z,73.21
2022-12-13T08:52:40.181Z,73.34
2022-12-13T08:55:11.890Z,73.29
2022-12-13T08:57:43.410Z,73.37
2022-12-13T09:00:16.762Z,73.30
2022-12-13T09:02:46.060Z,73.33
2022-12-13T09:05:33.256Z,73.28
2022-12-13T09:08:22.863Z,73.33
2022-12-13T09:11:01.163Z,73.33
2022-12-13T09:13:43.734Z,73.25
2022-12-13T09:16:23.483Z,73.34
2022-12-13T09:18:56.428Z,73.61
2022-12-13T09:21:31.736Z,73.30
2022-12-13T09:24:02.472Z,73.41
2022-12-13T09:26:38.065Z,73.28
2022-12-13T09:29:10.523Z,73.29
2022-12-13T09:31:41.345Z,73.31
2022-12-13T09:34:11.410Z,73.17
2022-12-13T09:36:40.743Z,73.28
2022-12-13T09:39:12.535Z,73.17
2022-12-13T09:41:51.406Z,73.29
2022-12-13T09:44:32.072Z,73.25
2022-12-13T09:47:22.722Z,73.16
2022-12-13T09:49:53.747Z,73.17
2022-12-13T09:52:26.395Z,73.13
2022-12-13T09:55:06.570Z,73.11
2022-12-13T09:57:38.291Z,73.16
2022-12-13T10:00:14.536Z,73.26
2022-12-13T10:02:56.136Z,73.43
2022-12-13T10:05:39.499Z,73.17
2022-12-13T10:08:15.220Z,73.31
2022-12-13T10:10:44.319Z,73.25
2022-12-13T10:13:20.044Z,73.22
2022-12-13T10:15:54.862Z,73.29
2022-12-13T10:18:34.526Z,73.14
2022-12-13T10:21:29.673Z,73.16
2022-12-13T10:24:36.452Z,73.28
2022-12-13T10:27:18.706Z,73.42
2022-12-13T10:30:08.633Z,73.29
2022-12-13T10:32:54.439Z,73.23
2022-12-13T10:35:37.492Z,73.13
2022-12-13T10:38:09.556Z,73.25
2022-12-13T10:40:47.383Z,73.42
2022-12-13T10:43:19.553Z,73.31
2022-12-13T10:45:58.419Z,73.16
2022-12-13T10:48:38.391Z,73.21
2022-12-13T10:51:15.226Z,73.28
2022-12-13T10:53:59.695Z,73.21
2022-12-13T10:56:46.104Z,73.37
2022-12-13T10:59:26.403Z,73.40
2022-12-13T11:01:56.167Z,73.11
2022-12-13T11:04:32.726Z,73.16
2022-12-13T11:07:22.599Z,73.08
2022-12-13T11:09:52.752Z,73.28
2022-12-13T11:12:27.876Z,73.42
2022-12-13T11:15:01.525Z,73.00
2022-12-13T11:17:34.305Z,73.32
2022-12-13T11:20:16.409Z,73.22
2022-12-13T11:22:45.332Z,73.29
2022-12-13T11:25:24.700Z,73.23
2022-12-13T11:28:29.032Z,73.20
2022-12-13T11:31:03.747Z,73.19
2022-12-13T11:34:11.742Z,73.41
2022-12-13T11:36:54.252Z,73.08
2022-12-13T11:39:33.472Z,73.19
2022-12-13T11:42:30.551Z,73.02
2022-12-13T11:45:23.142Z,73.32
2022-12-13T11:48:10.238Z,73.07
2022-12-13T11:50:42.029Z,73.33
2022-12-13T11:53:19.818Z,73.49
2022-12-13T11:55:56.059Z,73.44
2022-12-13T11:59:16.307Z,73.29
2022-12-13T12:01:56.887Z,73.25
2022-12-13T12:04:58.363Z,73.23
2022-12-13T12:07:58.416Z,73.13
2022-12-13T12:10:49.379Z,73.31
2022-12-13T12:13:18.798Z,73.16
2022-12-13T12:16:07.703Z,73.19
2022-12-13T12:18:37.690Z,73.25
2022-12-13T12:21:09.941Z,73.18
2022-12-13T12:23:53.813Z,73.16
2022-12-13T12:26:50.983Z,73.27
2022-12-13T12:29:38.412Z,73.05
2022-12-13T12:32:21.193Z,73.19
2022-12-13T12:35:16.279Z,73.31
2022-12-13T12:37:54.149Z,73.30
2022-12-13T12:41:14.303Z,73.32
2022-12-13T12:43:35.584Z,73.22
2022-12-13T12:46:26.831Z,73.45
2022-12-13T12:49:32.655Z,73.01
2022-12-13T12:52:24.291Z,73.38
2022-12-13T12:55:12.723Z,73.51
2022-12-13T12:57:56.641Z,73.25
2022-12-13T13:00:44.774Z,73.33
2022-12-13T13:03:28.920Z,73.35
2022-12-13T13:06:05.730Z,73.33
2022-12-13T13:08:41.709Z,73.47
2022-12-13T13:11:24.804Z,73.16
2022-12-13T13:14:02.201Z,73.30
2022-12-13T13:16:34.423Z,73.29
2022-12-13T13:19:41.527Z,73.14
2022-12-13T13:22:43.481Z,73.31
2022-12-13T13:25:23.838Z,73.15
2022-12-13T13:28:01.040Z,73.20
2022-12-13T13:30:31.330Z,73.12
2022-12-13T13:33:00.611Z,73.21
2022-12-13T13:35:33.407Z,73.09
2022-12-13T13:38:17.935Z,73.20
2022-12-13T13:40:46.956Z,73.18
2022-12-13T13:43:18.543Z,73.11
2022-12-13T13:45:59.958Z,73.29
2022-12-13T13:48:51.778Z,73.07
2022-12-13T13:52:23.870Z,73.17
2022-12-13T13:55:21.293Z,73.13
2022-12-13T13:58:11.814Z,73.15
2022-12-13T14:01:17.865Z,73.03
2022-12-13T14:04:25.838Z,73.11
2022-12-13T14:07:11.570Z,73.02
2022-12-13T14:10:08.068Z,73.04
2022-12-13T14:13:00.067Z,73.22
2022-12-13T14:16:06.994Z,72.95
2022-12-13T14:19:12.376Z,72.75
2022-12-13T14:22:23.897Z,72.82
2022-12-13T14:25:01.641Z,72.79
2022-12-13T14:27:47.230Z,72.90
2022-12-13T14:30:28.237Z,72.95
2022-12-13T14:32:58.962Z,72.98
2022-12-13T14:35:33.196Z,72.82
2022-12-13T14:38:06.000Z,72.79
2022-12-13T14:40:37.756Z,72.59
2022-12-13T14:43:24.358Z,72.93
2022-12-13T14:45:58.775Z,72.66
2022-12-13T14:48:30.300Z,72.64
2022-12-13T14:50:59.279Z,72.64
2022-12-13T14:53:45.158Z,72.30
2022-12-13T14:56:27.628Z,72.80
2022-12-13T14:59:01.268Z,72.61
2022-12-13T15:01:36.390Z,72.49
2022-12-13T15:04:19.905Z,72.27
2022-12-13T15:06:56.668Z,72.53
2022-12-13T15:09:29.242Z,72.77
2022-12-13T15:12:23.441Z,72.44
2022-12-13T15:15:03.198Z,72.45
2022-12-13T15:17:41.533Z,72.36
2022-12-13T15:20:29.165Z,72.39
2022-12-13T15:23:05.308Z,72.45
2022-12-13T15:25:37.941Z,72.29
2022-12-13T15:28:08.753Z,72.37
2022-12-13T15:30:39.219Z,72.32
2022-12-13T15:33:18.902Z,72.27
2022-12-13T15:36:07.219Z,72.35
2022-12-13T15:38:40.866Z,72.29
2022-12-13T15:41:19.224Z,72.35
2022-12-13T15:43:55.173Z,72.26
2022-12-13T15:46:34.106Z,72.31
2022-12-13T15:49:03.789Z,72.34
2022-12-13T15:51:32.815Z,72.24
2022-12-13T15:54:04.332Z,72.24
2022-12-13T15:56:36.612Z,72.18
2022-12-13T15:59:07.493Z,72.13
2022-12-13T16:01:38.036Z,72.04
2022-12-13T16:04:07.659Z,72.23
2022-12-13T16:06:37.066Z,72.14
2022-12-13T16:09:08.568Z,72.12
2022-12-13T16:11:48.453Z,72.36
2022-12-13T16:14:34.608Z,72.34
2022-12-13T16:17:15.826Z,72.22
2022-12-13T16:19:44.831Z,72.16
2022-12-13T16:22:13.670Z,72.15
2022-12-13T16:24:42.440Z,72.10
2022-12-13T16:27:11.317Z,72.17
2022-12-13T16:29:40.577Z,72.40
2022-12-13T16:32:11.337Z,72.04
2022-12-13T16:34:40.808Z,72.22
2022-12-13T16:37:26.319Z,72.16
2022-12-13T16:39:57.252Z,72.04
2022-12-13T16:42:27.034Z,72.21
2022-12-13T16:45:32.475Z,72.00
2022-12-13T16:47:50.414Z,72.26
2022-12-13T16:50:21.496Z,72.11
2022-12-13T16:52:50.468Z,72.00
2022-12-13T16:55:19.249Z,71.94
2022-12-13T16:57:58.502Z,72.10
2022-12-13T17:00:30.402Z,72.22
2022-12-13T17:03:00.654Z,72.07
2022-12-13T17:05:30.112Z,71.87
2022-12-13T17:07:58.935Z,71.90
2022-12-13T17:10:28.578Z,71.80
2022-12-13T17:12:57.559Z,71.89
2022-12-13T17:15:26.753Z,71.88
2022-12-13T17:17:55.941Z,71.78
2022-12-13T17:20:25.726Z,71.61
2022-12-13T17:22:54.667Z,71.61
2022-12-13T17:25:24.414Z,71.63
2022-12-13T17:27:53.217Z,71.83
2022-12-13T17:30:22.087Z,71.58
2022-12-13T17:32:51.059Z,71.56
2022-12-13T17:35:20.427Z,71.65
2022-12-13T17:37:49.602Z,71.95
2022-12-13T17:40:18.556Z,71.42
2022-12-13T17:42:50.389Z,71.59
2022-12-13T17:45:20.240Z,71.59
2022-12-13T17:47:49.277Z,71.51
2022-12-13T17:50:18.205Z,71.52
2022-12-13T17:52:47.069Z,71.55
2022-12-13T17:55:18.660Z,71.49
2022-12-13T17:57:47.521Z,71.48
2022-12-13T18:00:17.316Z,71.51
2022-12-13T18:02:55.874Z,71.47
2022-12-13T18:05:28.299Z,71.32
2022-12-13T18:07:57.276Z,71.01
2022-12-13T18:10:29.827Z,71.42
2022-12-13T18:12:59.618Z,71.46
2022-12-13T18:15:28.747Z,71.44
2022-12-13T18:18:11.132Z,71.24
2022-12-13T18:20:41.182Z,71.46
2022-12-13T18:23:10.253Z,71.66
2022-12-13T18:25:39.965Z,71.18
2022-12-13T18:28:12.388Z,71.28
2022-12-13T18:30:41.274Z,71.27
2022-12-13T18:33:10.762Z,71.36
2022-12-13T18:35:39.493Z,71.10
2022-12-13T18:38:08.696Z,71.50
2022-12-13T18:40:38.063Z,71.38
2022-12-13T18:43:06.967Z,71.29
2022-12-13T18:45:36.121Z,71.51
2022-12-13T18:48:05.108Z,71.11
2022-12-13T18:50:34.800Z,71.26
2022-12-13T18:53:03.646Z,71.36
2022-12-13T18:55:34.011Z,71.14
2022-12-13T18:58:02.828Z,71.27
2022-12-13T19:00:33.150Z,71.19
2022-12-13T19:03:02.629Z,70.99
2022-12-13T19:05:31.526Z,71.18
2022-12-13T19:08:00.273Z,71.30
2022-12-13T19:10:29.082Z,70.96
2022-12-13T19:12:58.102Z,71.13
2022-12-13T19:15:29.694Z,71.12
2022-12-13T19:17:58.849Z,71.10
2022-12-13T19:20:27.773Z,71.13
2022-12-13T19:22:57.057Z,71.11
2022-12-13T19:25:25.863Z,70.98
2022-12-13T19:27:57.345Z,70.78
2022-12-13T19:30:26.487Z,70.80
2022-12-13T19:32:55.253Z,71.10
2022-12-13T19:35:24.129Z,71.10
2022-12-13T19:37:53.780Z,71.27
2022-12-13T19:40:22.683Z,71.05
2022-12-13T19:42:51.537Z,70.79
2022-12-13T19:45:20.761Z,70.82
2022-12-13T19:47:49.614Z,70.85
2022-12-13T19:50:18.744Z,71.06
2022-12-13T19:52:47.554Z,70.97
2022-12-13T19:55:16.467Z,71.11
2022-12-13T19:57:45.257Z,70.80
2022-12-13T20:00:15.601Z,70.93
2022-12-13T20:02:44.544Z,70.80
2022-12-13T20:05:13.468Z,71.01
2022-12-13T20:07:42.440Z,70.61
2022-12-13T20:10:12.621Z,70.73
2022-12-13T20:12:41.454Z,70.82
2022-12-13T20:15:10.765Z,70.40
2022-12-13T20:17:39.584Z,70.63
2022-12-13T20:20:08.874Z,70.60
2022-12-13T20:22:37.800Z,70.67
2022-12-13T20:25:07.893Z,70.60
2022-12-13T20:27:36.837Z,70.68
2022-12-13T20:30:07.038Z,70.49
2022-12-13T20:32:35.859Z,70.49
2022-12-13T20:35:04.984Z,70.51
2022-12-13T20:37:33.880Z,70.46
2022-12-13T20:40:02.709Z,70.71
2022-12-13T20:42:34.087Z,70.66
2022-12-13T20:45:03.156Z,70.52
2022-12-13T20:47:37.586Z,70.57
2022-12-13T20:50:07.918Z,70.71
2022-12-13T20:52:37.101Z,70.61
2022-12-13T20:55:06.944Z,70.73
2022-12-13T20:57:35.692Z,70.47
2022-12-13T21:00:06.045Z,70.38
2022-12-13T21:02:35.170Z,70.51
2022-12-13T21:05:04.460Z,70.40
2022-12-13T21:07:51.894Z,70.47
2022-12-13T21:10:20.711Z,70.45
2022-12-13T21:12:49.543Z,70.32
2022-12-13T21:15:18.402Z,70.41
2022-12-13T21:17:47.372Z,70.46
2022-12-13T21:20:16.405Z,70.54
2022-12-13T21:22:45.857Z,70.66
2022-12-13T21:25:14.868Z,70.48
2022-12-13T21:27:43.623Z,70.51
2022-12-13T21:30:17.467Z,70.53
2022-12-13T21:32:51.364Z,70.39
2022-12-13T21:35:21.903Z,70.64
2022-12-13T21:37:50.751Z,70.31
2022-12-13T21:40:19.608Z,70.47
2022-12-13T21:42:48.382Z,70.20
2022-12-13T21:45:17.384Z,70.42
2022-12-13T21:47:46.195Z,70.65
2022-12-13T21:50:15.005Z,70.31
2022-12-13T21:52:49.426Z,70.38
2022-12-13T21:58:29.482Z,70.10
2022-12-13T22:00:59.156Z,69.85
2022-12-13T22:03:28.512Z,70.00
2022-12-13T22:05:57.312Z,70.08
2022-12-13T22:08:26.176Z,70.07
2022-12-13T22:11:19.362Z,70.01
2022-12-13T22:13:50.195Z,69.95
2022-12-13T22:16:19.064Z,70.02
2022-12-13T22:18:48.122Z,69.81
2022-12-13T22:21:16.939Z,70.02
2022-12-13T22:23:45.708Z,70.07
2022-12-13T22:26:14.567Z,70.12
2022-12-13T22:28:43.382Z,70.11
2022-12-13T22:31:12.592Z,70.03
2022-12-13T22:33:41.417Z,69.94
2022-12-13T22:36:10.650Z,70.00
2022-12-13T22:38:39.433Z,70.26
2022-12-13T22:41:08.448Z,70.05
2022-12-13T22:43:37.910Z,69.96
2022-12-13T22:46:09.036Z,70.07
2022-12-13T22:48:38.244Z,69.89
2022-12-13T22:51:10.280Z,69.88
2022-12-13T22:53:40.838Z,69.81
2022-12-13T22:56:17.330Z,70.22
2022-12-13T22:58:47.605Z,70.08
2022-12-13T23:01:20.999Z,70.00
2022-12-13T23:03:50.443Z,70.03
2022-12-13T23:06:22.734Z,69.85
2022-12-13T23:08:58.047Z,69.90
2022-12-13T23:11:46.379Z,69.94
2022-12-13T23:14:18.246Z,69.82
2022-12-13T23:16:47.634Z,69.72
2022-12-13T23:19:41.154Z,69.91
2022-12-13T23:22:09.098Z,69.71
2022-12-13T23:24:37.861Z,69.98
2022-12-13T23:27:10.490Z,69.81
2022-12-13T23:29:41.071Z,69.91
2022-12-13T23:32:09.891Z,69.98
2022-12-13T23:34:39.424Z,69.99
2022-12-13T23:37:08.542Z,69.98
2022-12-13T23:39:37.314Z,70.10
2022-12-13T23:42:06.221Z,69.85
2022-12-13T23:44:35.069Z,69.94
2022-12-13T23:47:03.890Z,69.85
2022-12-13T23:49:32.959Z,69.66
2022-12-13T23:52:01.860Z,69.96
2022-12-13T23:54:30.698Z,69.66
2022-12-13T23:56:59.549Z,69.72
2022-12-13T23:59:28.574Z,69.60
